Time;durP1;ratioP1;P1;durP2;ratioP2;P2;SDS_P1;SDS_P2;PMS_P1;PMS_P2;Temp;Humidity;BMP_temperature;BMP_pressure;BME280_temperature;BME280_humidity;BME280_pressure;Samples;Min_cycle;Max_cycle;Signal;HPM_P1;HPM_P2
2023/05/23 00:01:44;;;;;;;16.65;12.95;;;;;;;25.42;50.60;98539.91;5097212;28;20027;-45
2023/05/23 00:04:15;;;;;;;21.67;12.32;;;;;;;25.53;50.42;98527.81;5098579;28;20137;-45
2023/05/23 00:06:45;;;;;;;14.82;11.23;;;;;;;25.60;49.81;98533.59;5081120;28;20039;-45
2023/05/23 00:09:15;;;;;;;17.40;12.45;;;;;;;25.74;49.56;98535.47;5098505;28;20122;-45
2023/05/23 00:11:44;;;;;;;15.63;12.70;;;;;;;25.59;49.71;98537.38;5097039;28;20020;-45
2023/05/23 00:14:14;;;;;;;13.93;12.13;;;;;;;25.49;50.13;98532.22;5097197;28;20470;-45
2023/05/23 00:16:41;;;;;;;14.07;12.63;;;;;;;25.51;50.05;98538.09;5098445;28;20481;-45
2023/05/23 00:19:08;;;;;;;20.40;13.20;;;;;;;25.63;50.00;98529.50;5097095;28;20062;-45
2023/05/23 00:21:34;;;;;;;14.45;12.85;;;;;;;25.61;49.58;98532.47;5098363;28;20027;-45
2023/05/23 00:24:01;;;;;;;23.27;13.63;;;;;;;25.15;50.12;98527.28;5098396;28;20035;-45
2023/05/23 00:26:30;;;;;;;16.42;12.35;;;;;;;25.01;51.13;98535.34;5096951;28;20028;-45
2023/05/23 00:28:57;;;;;;;16.73;12.77;;;;;;;25.06;50.78;98536.03;5098248;28;20150;-45
2023/05/23 00:31:23;;;;;;;16.98;12.15;;;;;;;25.18;51.05;98535.53;5098255;28;20020;-46
2023/05/23 00:33:49;;;;;;;19.60;12.88;;;;;;;25.36;50.82;98533.06;5098276;28;20064;-45
2023/05/23 00:36:14;;;;;;;17.60;13.75;;;;;;;25.45;50.26;98536.59;5098222;28;20513;-45
2023/05/23 00:38:40;;;;;;;14.88;13.40;;;;;;;25.47;50.21;98539.78;5096888;28;20529;-45
2023/05/23 00:41:06;;;;;;;16.80;12.38;;;;;;;25.39;50.40;98541.28;5096874;28;20028;-45
2023/05/23 00:43:31;;;;;;;25.85;13.65;;;;;;;25.38;50.55;98539.72;5098153;28;20081;-45
2023/05/23 00:45:59;;;;;;;18.42;12.38;;;;;;;25.51;50.14;98535.41;5098037;28;20093;-45
2023/05/23 00:48:25;;;;;;;20.92;14.85;;;;;;;25.55;50.39;98543.66;5098173;28;20024;-45
2023/05/23 00:50:52;;;;;;;14.73;13.20;;;;;;;25.57;49.98;98534.19;5098010;28;20273;-45
2023/05/23 00:53:18;;;;;;;15.65;13.07;;;;;;;25.54;50.07;98525.97;5098129;28;20028;-45
2023/05/23 00:55:44;;;;;;;23.98;13.80;;;;;;;25.51;49.79;98535.41;5096794;28;20105;-45
2023/05/23 00:58:10;;;;;;;17.25;13.23;;;;;;;25.38;50.52;98526.28;5098080;28;20111;-45
2023/05/23 01:00:37;;;;;;;17.88;12.73;;;;;;;25.41;50.36;98532.94;5096682;28;20032;-45
2023/05/23 01:03:06;;;;;;;13.95;12.52;;;;;;;25.47;50.25;98540.59;5096692;28;20034;-45
2023/05/23 01:05:32;;;;;;;17.98;13.65;;;;;;;25.59;50.20;98531.19;5097981;28;20409;-45
2023/05/23 01:07:58;;;;;;;16.55;14.73;;;;;;;25.65;49.89;98530.78;5097987;28;20035;-45
2023/05/23 01:10:30;;;;;;;17.00;14.90;;;;;;;25.58;49.54;98526.94;5093813;28;20035;-45
2023/05/23 01:13:16;;;;;;;23.08;18.98;;;;;;;25.14;50.54;98529.16;5094828;28;20031;-45
2023/05/23 01:15:51;;;;;;;21.17;13.32;;;;;;;25.07;51.20;98534.13;5093368;28;20028;-45
2023/05/23 01:18:29;;;;;;;16.08;14.45;;;;;;;25.09;50.94;98534.63;5094692;28;20035;-45
2023/05/23 01:20:58;;;;;;;24.13;14.38;;;;;;;24.84;51.64;98528.69;5094601;28;20440;-45
2023/05/23 01:23:54;;;;;;;16.33;14.63;;;;;;;24.82;51.96;98533.56;5093251;28;20028;-45
2023/05/23 01:26:52;;;;;;;16.88;14.30;;;;;;;25.01;51.71;98530.78;5094484;28;20051;-44
2023/05/23 01:29:25;;;;;;;16.75;15.02;;;;;;;25.18;51.20;98527.47;5048915;28;20036;-44
2023/05/23 01:31:57;;;;;;;21.13;14.60;;;;;;;25.25;50.85;98527.09;5093185;28;20046;-44
2023/05/23 01:34:23;;;;;;;18.58;15.75;;;;;;;25.17;50.75;98536.63;5094534;28;20032;-44
2023/05/23 01:36:54;;;;;;;21.10;15.60;;;;;;;24.94;51.47;98530.38;5094381;28;20024;-44
2023/05/23 01:39:20;;;;;;;18.58;15.15;;;;;;;24.84;51.77;98533.25;5094291;28;20020;-44
2023/05/23 01:41:46;;;;;;;18.42;13.95;;;;;;;24.71;52.18;98530.28;5094181;28;20024;-44
2023/05/23 01:44:12;;;;;;;25.98;15.18;;;;;;;24.72;52.21;98531.06;5093921;28;20024;-44
2023/05/23 01:46:38;;;;;;;19.52;17.13;;;;;;;24.68;52.23;98530.84;5094181;28;20024;-44
2023/05/23 01:49:07;;;;;;;19.33;17.02;;;;;;;24.61;52.51;98530.47;5094067;28;20024;-44
2023/05/23 01:51:33;;;;;;;20.38;16.00;;;;;;;24.60;52.93;98538.81;5093918;28;20023;-44
2023/05/23 01:53:59;;;;;;;18.65;15.80;;;;;;;24.37;52.79;98529.78;5092642;28;20020;-44
2023/05/23 01:56:27;;;;;;;21.23;16.45;;;;;;;24.19;53.66;98537.59;5093908;28;20020;-44
2023/05/23 01:58:53;;;;;;;17.70;15.70;;;;;;;24.18;53.91;98537.88;5092920;28;20020;-44
2023/05/23 02:01:19;;;;;;;18.00;15.23;;;;;;;24.13;53.87;98536.09;5092483;28;20020;-44
2023/05/23 02:03:45;;;;;;;19.30;14.85;;;;;;;24.24;53.75;98532.13;5093723;28;20032;-44
2023/05/23 02:06:10;;;;;;;19.63;17.05;;;;;;;24.24;53.41;98542.84;5092424;28;20512;-44
2023/05/23 02:08:36;;;;;;;26.10;16.42;;;;;;;24.06;54.04;98524.94;5092317;28;20432;-44
2023/05/23 02:11:02;;;;;;;20.63;17.35;;;;;;;24.10;54.10;98529.41;5093558;28;20016;-44
2023/05/23 02:13:28;;;;;;;26.23;18.02;;;;;;;24.21;53.91;98537.31;5092284;28;20016;-44
2023/05/23 02:15:54;;;;;;;20.10;16.75;;;;;;;24.24;53.79;98540.19;5093530;28;20375;-44
2023/05/23 02:18:20;;;;;;;21.80;14.68;;;;;;;24.28;53.87;98535.81;5092506;28;20528;-44
2023/05/23 02:20:45;;;;;;;18.05;15.95;;;;;;;24.35;53.60;98532.78;5092945;28;20149;-44
2023/05/23 02:23:11;;;;;;;25.88;17.30;;;;;;;24.26;53.53;98524.59;5092045;28;20462;-44
2023/05/23 02:25:37;;;;;;;22.60;16.65;;;;;;;24.06;53.96;98525.72;5091953;28;20030;-44
2023/05/23 02:28:03;;;;;;;18.98;15.85;;;;;;;23.92;54.37;98524.88;5093224;28;20024;-44
2023/05/23 02:30:28;;;;;;;18.77;15.85;;;;;;;23.75;54.91;98522.69;5091803;28;20413;-44
2023/05/23 02:32:54;;;;;;;23.58;17.13;;;;;;;23.65;54.85;98523.66;5091894;28;20491;-44
2023/05/23 02:35:21;;;;;;;21.02;18.08;;;;;;;23.42;55.65;98527.19;5091821;28;20058;-44
2023/05/23 02:37:46;;;;;;;20.58;17.35;;;;;;;23.28;55.77;98535.94;5093133;28;20433;-44
2023/05/23 02:40:12;;;;;;;18.00;16.25;;;;;;;23.20;56.60;98525.06;5093017;28;20024;-44
2023/05/23 02:42:38;;;;;;;19.65;17.45;;;;;;;;;;5093031;28;20027;-44
2023/05/23 02:45:04;;;;;;;31.15;19.10;;;;;;;23.17;56.89;98526.44;5092856;28;20125;-44
2023/05/23 02:47:29;;;;;;;18.70;16.70;;;;;;;23.17;56.98;98526.44;5092970;28;20028;-44
2023/05/23 02:49:55;;;;;;;20.75;18.92;;;;;;;23.22;56.96;98529.06;5092766;28;20086;-45
2023/05/23 02:52:21;;;;;;;23.42;18.08;;;;;;;23.06;57.18;98522.28;5092756;28;20444;-44
2023/05/23 02:54:46;;;;;;;19.77;17.83;;;;;;;22.88;57.13;98527.28;5092765;28;20023;-44
2023/05/23 02:57:12;;;;;;;18.98;16.80;;;;;;;22.82;58.05;98525.75;5091372;28;20032;-44
2023/05/23 02:59:38;;;;;;;19.38;17.20;;;;;;;22.94;57.83;98528.03;5092630;28;20099;-44
2023/05/23 03:02:04;;;;;;;18.65;15.75;;;;;;;23.01;57.98;98528.47;5092635;28;20024;-44
2023/05/23 03:04:29;;;;;;;26.55;17.35;;;;;;;23.06;57.75;98532.97;5092494;28;20444;-44
2023/05/23 03:06:55;;;;;;;25.67;17.90;;;;;;;22.97;57.41;98526.66;5091228;28;20028;-44
2023/05/23 03:09:21;;;;;;;23.65;17.17;;;;;;;22.99;58.06;98527.16;5091219;28;20020;-44
2023/05/23 03:11:46;;;;;;;22.08;18.70;;;;;;;23.16;57.60;98529.38;5091019;28;20059;-44
2023/05/23 03:14:12;;;;;;;21.27;18.90;;;;;;;23.24;57.16;98532.25;5091138;28;20028;-44
2023/05/23 03:16:38;;;;;;;19.27;17.15;;;;;;;23.12;56.83;98529.19;5092602;28;20392;-44
2023/05/23 03:19:04;;;;;;;25.63;17.02;;;;;;;23.12;57.17;98534.53;5092333;28;20028;-44
2023/05/23 03:21:31;;;;;;;19.63;17.63;;;;;;;23.15;57.62;98536.63;5092370;28;20016;-44
2023/05/23 03:23:57;;;;;;;19.85;16.40;;;;;;;22.98;57.35;98534.41;5091308;28;20115;-44
2023/05/23 03:26:23;;;;;;;21.17;17.67;;;;;;;23.20;57.22;98536.59;5092343;28;20110;-44
2023/05/23 03:28:50;;;;;;;20.40;18.05;;;;;;;23.23;56.94;98538.66;5090899;28;20034;-44
2023/05/23 03:31:16;;;;;;;22.42;16.75;;;;;;;23.26;57.14;98538.09;5090967;28;20024;-44
2023/05/23 03:33:41;;;;;;;22.98;17.67;;;;;;;23.36;56.73;98545.19;5091309;28;20103;-44
2023/05/23 03:36:07;;;;;;;20.83;18.25;;;;;;;23.29;56.91;98539.41;5092014;28;20103;-44
2023/05/23 03:38:33;;;;;;;21.98;16.58;;;;;;;23.26;56.80;98543.47;5091024;28;20058;-44
2023/05/23 03:40:59;;;;;;;19.23;17.08;;;;;;;23.37;56.43;98535.31;5092051;28;20024;-44
2023/05/23 03:43:25;;;;;;;26.33;18.45;;;;;;;23.38;56.66;98545.72;5090679;28;20028;-44
2023/05/23 03:45:50;;;;;;;30.88;18.08;;;;;;;23.16;56.75;98537.41;5090655;28;20945;-44
2023/05/23 03:48:16;;;;;;;23.92;18.05;;;;;;;23.28;57.12;98543.16;5091959;28;20016;-44
2023/05/23 03:50:42;;;;;;;21.40;17.35;;;;;;;23.36;56.69;98539.03;5091837;28;20058;-44
2023/05/23 03:53:08;;;;;;;24.05;17.55;;;;;;;23.24;56.58;98537.59;5090617;28;20028;-44
2023/05/23 03:55:33;;;;;;;24.10;19.52;;;;;;;23.07;57.20;98539.94;5090517;28;20032;-44
2023/05/23 03:57:59;;;;;;;26.30;18.70;;;;;;;22.91;57.37;98548.09;5090550;28;20061;-44
2023/05/23 04:00:25;;;;;;;24.77;18.85;;;;;;;22.80;57.76;98541.28;5091810;28;20028;-44
2023/05/23 04:02:51;;;;;;;23.90;20.13;;;;;;;22.74;58.02;98545.88;5090471;28;20109;-44
2023/05/23 04:05:17;;;;;;;28.45;18.35;;;;;;;22.64;58.56;98539.84;5091736;28;20492;-44
2023/05/23 04:07:43;;;;;;;22.98;19.40;;;;;;;22.64;58.72;98537.97;5090604;28;20509;-44
2023/05/23 04:10:09;;;;;;;23.08;19.65;;;;;;;22.62;58.60;98540.13;5090309;28;20502;-44
2023/05/23 04:12:36;;;;;;;29.75;18.45;;;;;;;22.76;58.50;98550.16;5091751;28;20031;-44
2023/05/23 04:15:02;;;;;;;26.30;19.20;;;;;;;22.78;58.08;98556.81;5090421;28;20024;-44
2023/05/23 04:17:30;;;;;;;28.60;19.90;;;;;;;22.67;58.21;98558.00;5090342;28;20030;-44
2023/05/23 04:19:57;;;;;;;25.10;20.58;;;;;;;22.56;58.73;98549.28;5091590;28;20024;-44
2023/05/23 04:22:22;;;;;;;28.13;20.27;;;;;;;22.43;58.78;98548.06;5090559;28;20024;-44
2023/05/23 04:24:48;;;;;;;28.73;21.48;;;;;;;22.31;59.45;98552.97;5090279;28;20035;-44
2023/05/23 04:27:14;;;;;;;28.50;21.02;;;;;;;22.21;59.71;98553.03;5090216;28;20028;-44
2023/05/23 04:29:39;;;;;;;25.88;21.42;;;;;;;22.14;59.99;98553.34;5091420;28;20035;-43
2023/05/23 04:32:06;;;;;;;32.83;21.75;;;;;;;22.07;60.14;98548.34;5090196;28;20436;-44
2023/05/23 04:34:32;;;;;;;36.70;24.13;;;;;;;21.95;60.80;98561.22;5091396;28;20059;-43
2023/05/23 04:37:01;;;;;;;38.03;23.55;;;;;;;21.86;60.93;98558.38;5091514;28;20043;-44
2023/05/23 04:39:31;;;;;;;39.63;26.13;;;;;;;21.86;60.95;98565.59;5090477;28;20063;-44
2023/05/23 04:41:56;;;;;;;43.67;25.55;;;;;;;21.84;61.30;98565.84;5090472;28;20066;-44
2023/05/23 04:44:22;;;;;;;41.40;30.05;;;;;;;21.81;61.19;98569.09;5092809;28;20076;-44
2023/05/23 04:46:49;;;;;;;33.60;25.40;;;;;;;21.76;61.27;98579.00;5094096;28;20044;-44
2023/05/23 04:49:15;;;;;;;30.92;22.55;;;;;;;21.67;61.86;98576.09;5094039;28;20043;-44
2023/05/23 04:51:41;;;;;;;34.85;24.65;;;;;;;21.62;61.60;98579.59;5095049;28;20400;-44
2023/05/23 04:54:07;;;;;;;37.45;22.95;;;;;;;21.51;62.25;98580.72;5093803;28;20574;-44
2023/05/23 04:56:33;;;;;;;44.63;23.88;;;;;;;21.63;62.52;98583.06;5095248;28;20044;-44
2023/05/23 04:58:59;;;;;;;46.03;31.77;;;;;;;21.67;62.52;98582.25;5095063;28;20035;-44
2023/05/23 05:01:25;;;;;;;35.13;29.95;;;;;;;21.58;62.40;98591.91;5094831;28;20149;-44
2023/05/23 05:03:51;;;;;;;28.88;25.83;;;;;;;21.54;62.92;98582.84;5094965;28;20024;-44
2023/05/23 05:06:18;;;;;;;44.40;36.05;;;;;;;21.69;62.48;98587.31;5093850;28;20028;-44
2023/05/23 05:08:43;;;;;;;30.02;25.17;;;;;;;21.80;61.99;98588.84;5093844;28;20048;-44
2023/05/23 05:11:09;;;;;;;34.15;25.05;;;;;;;21.86;61.83;98597.66;5093433;28;20051;-43
2023/05/23 05:13:35;;;;;;;35.38;23.65;;;;;;;21.93;61.69;98595.44;5095124;28;20499;-44
2023/05/23 05:16:02;;;;;;;32.90;21.15;;;;;;;22.00;61.47;98590.59;5093661;28;20570;-44
2023/05/23 05:18:28;;;;;;;29.45;23.08;;;;;;;22.12;61.17;98590.25;5093680;28;20051;-44
2023/05/23 05:20:54;;;;;;;32.63;21.30;;;;;;;22.13;61.16;98583.81;5094632;28;20024;-44
2023/05/23 05:23:24;;;;;;;27.17;22.23;;;;;;;22.31;60.85;98583.19;5093287;28;20027;-44
2023/05/23 05:25:50;;;;;;;45.35;33.50;;;;;;;22.36;60.42;98585.03;5094506;28;20024;-44
2023/05/23 05:28:15;;;;;;;36.78;23.70;;;;;;;22.22;60.50;98581.38;5094532;28;20101;-44
2023/05/23 05:30:41;;;;;;;31.98;22.67;;;;;;;22.14;60.60;98590.78;5093007;28;20032;-43
2023/05/23 05:33:07;;;;;;;36.88;22.85;;;;;;;22.06;60.74;98594.03;5093104;28;20028;-44
2023/05/23 05:35:34;;;;;;;48.30;27.70;;;;;;;21.94;60.92;98591.72;5093015;28;20024;-43
2023/05/23 05:38:01;;;;;;;40.97;30.50;;;;;;;21.81;61.59;98597.66;5094258;28;20031;-43
2023/05/23 05:40:27;;;;;;;30.70;27.38;;;;;;;21.75;61.63;98594.22;5094241;28;20095;-44
2023/05/23 05:42:53;;;;;;;28.17;25.10;;;;;;;21.71;62.01;98599.34;5094194;28;20058;-44
2023/05/23 05:45:19;;;;;;;35.63;26.25;;;;;;;21.63;62.10;98596.41;5092572;28;20463;-43
2023/05/23 05:47:45;;;;;;;40.83;24.35;;;;;;;21.57;62.45;98597.53;5092865;28;20133;-44
2023/05/23 05:50:11;;;;;;;36.65;25.25;;;;;;;21.53;62.67;98598.09;5093967;28;20024;-43
2023/05/23 05:52:38;;;;;;;34.65;24.55;;;;;;;21.58;62.72;98604.47;5093977;28;20513;-43
2023/05/23 05:55:11;;;;;;;50.70;37.25;;;;;;;21.67;62.55;98597.47;5093314;28;20098;-44
2023/05/23 05:57:40;;;;;;;48.28;43.42;;;;;;;21.70;62.52;98596.94;5093762;28;20032;-44
2023/05/23 06:00:12;;;;;;;35.88;31.60;;;;;;;21.76;62.36;98598.50;5093880;28;20486;-44
2023/05/23 06:02:38;;;;;;;51.42;38.17;;;;;;;21.91;62.13;98600.28;5094119;28;20031;-44
2023/05/23 06:05:06;;;;;;;64.22;51.38;;;;;;;21.88;61.73;98608.84;5093768;28;20444;-44
2023/05/23 06:07:34;;;;;;;45.83;39.60;;;;;;;21.69;62.10;98596.13;5093649;28;20085;-44
2023/05/23 06:10:00;;;;;;;42.47;38.00;;;;;;;21.64;62.39;98606.84;5092259;28;20034;-43
2023/05/23 06:12:26;;;;;;;53.53;37.92;;;;;;;21.66;62.46;98607.34;5092656;28;20493;-44
2023/05/23 06:14:52;;;;;;;35.17;26.25;;;;;;;21.74;62.37;98604.09;5092277;28;20520;-44
2023/05/23 06:17:17;;;;;;;35.00;24.20;;;;;;;21.74;62.23;98609.44;5093519;28;20031;-44
2023/05/23 06:19:43;;;;;;;33.42;26.80;;;;;;;21.78;62.20;98611.59;5093475;28;20058;-44
2023/05/23 06:22:09;;;;;;;41.08;26.58;;;;;;;21.74;62.29;98606.78;5093430;28;20035;-44
2023/05/23 06:24:34;;;;;;;52.65;43.38;;;;;;;21.73;62.19;98609.72;5093428;28;20501;-44
2023/05/23 06:27:00;;;;;;;34.50;26.45;;;;;;;21.77;62.34;98612.66;5093406;28;20024;-43
2023/05/23 06:29:26;;;;;;;35.85;28.75;;;;;;;21.76;62.25;98611.84;5092011;28;20030;-43
2023/05/23 06:31:52;;;;;;;48.35;39.30;;;;;;;21.73;62.38;98609.72;5093478;28;20103;-44
2023/05/23 06:34:18;;;;;;;39.38;26.50;;;;;;;21.78;62.28;98611.59;5093184;28;20485;-43
2023/05/23 06:36:45;;;;;;;40.03;28.58;;;;;;;21.82;62.48;98610.75;5093699;28;20028;-43
2023/05/23 06:39:11;;;;;;;39.47;27.05;;;;;;;21.81;62.23;98611.03;5093063;28;20093;-44
2023/05/23 06:41:38;;;;;;;36.42;25.40;;;;;;;21.77;62.34;98615.31;5093604;28;20486;-44
2023/05/23 06:44:04;;;;;;;51.30;30.77;;;;;;;21.82;62.57;98615.31;5091706;28;20024;-44
2023/05/23 06:46:30;;;;;;;43.92;27.40;;;;;;;21.91;61.97;98616.31;5092674;28;20098;-44
2023/05/23 06:48:55;;;;;;;33.63;27.15;;;;;;;21.92;61.99;98609.91;5091588;28;20103;-44
2023/05/23 06:51:21;;;;;;;51.10;32.92;;;;;;;21.92;61.83;98616.03;5092730;28;20028;-43
2023/05/23 06:53:47;;;;;;;35.40;27.15;;;;;;;21.93;61.73;98620.31;5091806;28;20089;-43
2023/05/23 06:56:13;;;;;;;37.03;28.50;;;;;;;21.86;61.89;98622.47;5092714;28;20444;-44
2023/05/23 06:58:38;;;;;;;37.67;26.38;;;;;;;21.80;62.22;98614.78;5092820;28;20389;-44
2023/05/23 07:01:05;;;;;;;40.17;27.85;;;;;;;21.77;62.29;98620.66;5092674;28;20024;-44
2023/05/23 07:03:30;;;;;;;40.15;26.42;;;;;;;21.76;62.41;98609.19;5091315;28;20047;-44
2023/05/23 07:05:56;;;;;;;31.52;25.98;;;;;;;21.79;61.99;98605.94;5091193;28;20024;-44
2023/05/23 07:08:22;;;;;;;42.30;26.98;;;;;;;21.88;62.02;98606.19;5091173;28;20024;-44
2023/05/23 07:10:47;;;;;;;70.60;53.38;;;;;;;22.01;61.62;98607.44;5091073;28;20032;-43
2023/05/23 07:13:13;;;;;;;28.83;25.77;;;;;;;22.16;61.18;98611.91;5091421;28;20111;-43
2023/05/23 07:15:39;;;;;;;37.40;27.75;;;;;;;22.30;60.94;98610.22;5092471;28;20032;-44
2023/05/23 07:18:05;;;;;;;35.15;25.30;;;;;;;22.36;60.38;98619.00;5091340;28;20035;-44
2023/05/23 07:20:32;;;;;;;38.75;27.35;;;;;;;22.40;60.33;98620.03;5092340;28;20103;-44
2023/05/23 07:22:59;;;;;;;30.08;23.05;;;;;;;22.34;59.94;98622.75;5091319;28;20027;-44
2023/05/23 07:25:25;;;;;;;45.83;29.15;;;;;;;22.36;60.09;98614.44;5092528;28;20098;-43
2023/05/23 07:27:53;;;;;;;34.58;22.73;;;;;;;22.32;59.64;98624.91;5092294;28;20525;-44
2023/05/23 07:30:21;;;;;;;36.38;22.77;;;;;;;22.26;59.51;98625.22;5092126;28;20028;-43
2023/05/23 07:32:47;;;;;;;36.08;22.40;;;;;;;22.23;60.31;98631.06;5074304;28;20032;-43
2023/05/23 07:35:16;;;;;;;42.53;29.50;;;;;;;22.28;60.38;98625.75;5092475;28;20024;-44
2023/05/23 07:37:42;;;;;;;31.58;24.40;;;;;;;22.30;60.02;98628.94;5092382;28;20484;-43
2023/05/23 07:40:09;;;;;;;29.27;23.38;;;;;;;22.31;60.20;98625.16;5091030;28;20024;-44
2023/05/23 07:42:35;;;;;;;43.13;24.60;;;;;;;22.36;59.92;98632.38;5090700;28;20028;-43
2023/05/23 07:45:01;;;;;;;28.75;20.80;;;;;;;22.41;59.98;98635.78;5091794;28;20036;-44
2023/05/23 07:47:27;;;;;;;39.67;22.95;;;;;;;22.28;59.86;98628.41;5074155;28;20031;-44
2023/05/23 07:49:53;;;;;;;35.88;22.92;;;;;;;22.28;60.64;98633.75;5091735;28;20505;-44
2023/05/23 07:52:20;;;;;;;36.10;21.05;;;;;;;22.33;60.52;98637.19;5091930;28;20409;-44
2023/05/23 07:54:45;;;;;;;35.90;24.90;;;;;;;22.59;59.60;98641.53;5092169;28;20023;-44
2023/05/23 07:57:11;;;;;;;42.70;25.70;;;;;;;22.38;59.92;98635.56;5091871;28;20553;-44
2023/05/23 07:59:38;;;;;;;29.25;23.02;;;;;;;22.35;60.35;98634.22;5091917;28;20433;-44
2023/05/23 08:02:04;;;;;;;35.35;24.75;;;;;;;22.51;60.18;98627.69;5091811;28;20028;-45
2023/05/23 08:04:31;;;;;;;38.28;24.17;;;;;;;22.72;59.12;98635.56;5091815;28;20103;-44
2023/05/23 08:06:56;;;;;;;35.78;23.75;;;;;;;22.63;59.26;98627.31;5090560;28;20493;-44
2023/05/23 08:09:23;;;;;;;39.70;23.42;;;;;;;22.63;59.83;98627.31;5090464;28;20024;-44
2023/05/23 08:11:48;;;;;;;37.40;27.45;;;;;;;22.92;59.10;98627.31;5090391;28;20119;-44
2023/05/23 08:14:14;;;;;;;35.53;21.85;;;;;;;23.08;58.11;98625.31;5091643;28;20091;-44
2023/05/23 08:16:40;;;;;;;40.92;25.95;;;;;;;23.10;58.07;98623.16;5090669;28;20451;-44
2023/05/23 08:19:06;;;;;;;35.70;22.77;;;;;;;23.16;57.95;98625.78;5091717;28;20028;-44
2023/05/23 08:21:32;;;;;;;39.35;25.00;;;;;;;23.50;57.48;98623.78;5095710;28;20099;-44
2023/05/23 08:23:58;;;;;;;49.17;31.42;;;;;;;23.60;56.42;98630.88;5095787;28;20028;-44
2023/05/23 08:26:25;;;;;;;42.15;27.42;;;;;;;23.64;56.44;98639.13;5095669;28;20020;-44
2023/05/23 08:28:52;;;;;;;43.40;26.23;;;;;;;23.65;55.96;98636.19;5095573;28;20051;-44
2023/05/23 08:31:17;;;;;;;39.80;24.05;;;;;;;23.77;55.63;98632.28;5095530;28;20024;-44
2023/05/23 08:33:43;;;;;;;40.58;26.23;;;;;;;23.85;55.45;98639.72;5095563;28;20031;-44
2023/05/23 08:36:09;;;;;;;45.60;30.48;;;;;;;23.92;55.23;98640.13;5095375;28;20436;-44
2023/05/23 08:38:35;;;;;;;40.50;27.88;;;;;;;23.94;54.88;98643.31;5094508;28;20032;-44
2023/05/23 08:41:01;;;;;;;35.53;24.05;;;;;;;24.03;54.86;98638.13;5095367;28;20107;-44
2023/05/23 08:43:27;;;;;;;35.00;24.02;;;;;;;24.16;54.13;98633.91;5094399;28;20115;-44
2023/05/23 08:45:54;;;;;;;43.30;27.33;;;;;;;24.07;54.37;98631.09;5095115;28;20040;-44
2023/05/23 08:48:20;;;;;;;50.35;37.53;;;;;;;24.27;53.94;98630.00;5093904;28;20053;-44
2023/05/23 08:50:47;;;;;;;34.42;24.27;;;;;;;24.41;53.26;98638.06;5094116;28;20115;-44
2023/05/23 08:53:19;;;;;;;30.83;21.13;;;;;;;24.52;52.99;98636.88;5095153;28;20020;-44
2023/05/23 08:55:47;;;;;;;44.78;24.88;;;;;;;24.54;52.46;98631.22;5095191;28;20031;-45
2023/05/23 08:58:15;;;;;;;31.17;20.50;;;;;;;24.48;53.14;98633.16;5093778;28;20037;-45
2023/05/23 09:00:42;;;;;;;53.30;19.13;;;;;;;24.66;52.88;98635.00;5095036;28;20028;-44
2023/05/23 09:03:08;;;;;;;30.38;19.70;;;;;;;24.94;51.83;98634.28;5093705;28;20062;-45
2023/05/23 09:05:34;;;;;;;32.75;22.48;;;;;;;25.26;51.05;98634.25;5094973;28;20023;-44
2023/05/23 09:07:59;;;;;;;28.05;19.13;;;;;;;25.49;50.28;98629.78;5093627;28;20028;-44
2023/05/23 09:10:28;;;;;;;36.05;21.30;;;;;;;25.48;49.71;98625.47;5094724;28;20115;-44
2023/05/23 09:12:55;;;;;;;32.72;21.63;;;;;;;25.29;50.35;98633.66;5093537;28;20034;-44
2023/05/23 09:15:24;;;;;;;37.70;30.67;;;;;;;25.30;50.47;98640.59;5093396;28;20057;-44
2023/05/23 09:17:50;;;;;;;30.23;18.90;;;;;;;25.35;50.53;98633.53;5094994;28;20107;-44
2023/05/23 09:20:18;;;;;;;28.58;20.10;;;;;;;25.30;49.92;98643.28;5093578;28;20020;-44
2023/05/23 09:22:47;;;;;;;34.95;20.10;;;;;;;25.12;50.27;98641.47;5094635;28;20081;-44
2023/05/23 09:25:14;;;;;;;29.85;20.73;;;;;;;24.90;50.57;98647.50;5094547;28;20398;-44
2023/05/23 09:27:41;;;;;;;91.25;80.97;;;;;;;24.65;51.40;98651.41;5094472;28;20402;-44
2023/05/23 09:30:09;;;;;;;45.53;37.90;;;;;;;24.44;51.88;98642.88;5093344;28;20046;-44
2023/05/23 09:32:35;;;;;;;89.40;75.20;;;;;;;24.31;52.12;98647.09;5094186;28;20023;-44
2023/05/23 09:35:03;;;;;;;37.45;28.88;;;;;;;24.21;52.49;98649.94;5093345;28;20020;-44
2023/05/23 09:37:38;;;;;;;65.50;57.35;;;;;;;24.11;53.12;98646.31;5094664;28;20019;-44
2023/05/23 09:40:12;;;;;;;37.75;27.80;;;;;;;24.17;52.99;98646.25;5093033;28;20022;-44
2023/05/23 09:42:43;;;;;;;34.97;23.40;;;;;;;24.27;52.97;98654.16;5092995;28;20090;-44
2023/05/23 09:45:09;;;;;;;54.47;25.27;;;;;;;24.21;52.76;98649.94;5093892;28;20373;-44
2023/05/23 09:47:37;;;;;;;48.45;24.88;;;;;;;24.06;53.00;98650.94;5092909;28;20052;-44
2023/05/23 09:50:03;;;;;;;78.25;27.25;;;;;;;23.95;53.28;98655.66;5092682;28;20109;-44
2023/05/23 09:52:38;;;;;;;60.15;26.80;;;;;;;23.78;53.66;98652.66;5092784;28;20031;-44
2023/05/23 09:55:05;;;;;;;63.08;27.02;;;;;;;23.66;54.14;98658.41;5093956;28;20069;-44
2023/05/23 09:57:34;;;;;;;76.97;25.45;;;;;;;23.65;54.35;98662.97;5094020;28;20020;-44
2023/05/23 10:00:05;;;;;;;77.50;28.20;;;;;;;23.61;54.02;98653.91;5092884;28;20073;-44
2023/05/23 10:03:11;;;;;;;67.45;27.83;;;;;;;23.48;54.34;98659.94;5093849;28;20128;-44
2023/05/23 10:05:47;;;;;;;66.75;29.50;;;;;;;23.28;54.79;98659.13;5093780;28;20030;-44
2023/05/23 10:08:28;;;;;;;70.03;27.08;;;;;;;23.32;55.23;98662.81;5092427;28;20104;-44
2023/05/23 10:10:57;;;;;;;43.50;26.33;;;;;;;23.47;55.13;98656.47;5093875;28;20107;-44
2023/05/23 10:13:27;;;;;;;42.80;26.83;;;;;;;23.52;54.63;98658.31;5092298;28;20498;-44
2023/05/23 10:16:08;;;;;;;57.10;28.88;;;;;;;23.38;54.56;98658.22;5093633;28;20024;-44
2023/05/23 10:18:42;;;;;;;66.65;28.75;;;;;;;23.43;54.93;98666.19;5093624;28;20086;-44
2023/05/23 10:21:11;;;;;;;45.95;27.08;;;;;;;23.59;54.43;98656.09;5092185;28;20027;-44
2023/05/23 10:23:38;;;;;;;44.80;24.58;;;;;;;23.84;53.99;98664.91;5093458;28;20421;-44
2023/05/23 10:26:05;;;;;;;57.22;28.17;;;;;;;24.15;52.94;98668.00;5093377;28;20081;-44
2023/05/23 10:28:32;;;;;;;47.13;29.95;;;;;;;24.28;52.63;98664.56;5093332;28;20382;-44
2023/05/23 10:30:58;;;;;;;49.58;26.05;;;;;;;24.42;52.21;98661.94;5093248;28;20028;-44
2023/05/23 10:33:27;;;;;;;45.92;27.23;;;;;;;24.59;51.76;98658.75;5075089;28;20105;-44
2023/05/23 10:36:02;;;;;;;51.58;25.42;;;;;;;24.67;51.13;98659.97;5091890;28;20023;-44
2023/05/23 10:38:35;;;;;;;42.97;26.45;;;;;;;25.11;50.51;98661.34;5093516;28;20030;-44
2023/05/23 10:41:20;;;;;;;34.80;24.60;;;;;;;25.42;48.98;98668.88;5091740;28;20085;-44
2023/05/23 10:43:50;;;;;;;41.85;25.60;;;;;;;25.50;48.74;98654.75;5093087;28;20077;-44
2023/05/23 10:46:20;;;;;;;45.40;26.60;;;;;;;25.50;48.11;98652.84;5091496;28;20596;-44
2023/05/23 10:48:46;;;;;;;33.70;25.27;;;;;;;25.40;48.47;98660.31;5091776;28;20074;-43
2023/05/23 10:51:13;;;;;;;41.90;27.60;;;;;;;25.26;48.77;98663.78;5092816;28;20063;-44
2023/05/23 10:53:46;;;;;;;43.53;27.02;;;;;;;24.92;49.26;98659.53;5091633;28;20028;-44
2023/05/23 10:56:22;;;;;;;43.42;25.02;;;;;;;24.71;50.38;98663.69;5091594;28;20114;-45
2023/05/23 10:58:54;;;;;;;42.72;26.70;;;;;;;24.62;50.13;98660.06;5092776;28;20035;-44
2023/05/23 11:01:21;;;;;;;39.42;26.25;;;;;;;24.49;50.67;98662.38;5091754;28;20020;-45
2023/05/23 11:03:46;;;;;;;39.47;26.35;;;;;;;24.55;50.68;98665.81;5092724;28;20107;-44
2023/05/23 11:06:43;;;;;;;39.83;26.42;;;;;;;24.47;50.81;98666.44;5092648;28;20103;-44
2023/05/23 11:09:15;;;;;;;32.70;24.75;;;;;;;24.48;51.02;98665.34;5091460;28;20043;-44
2023/05/23 11:11:52;;;;;;;43.28;27.95;;;;;;;24.59;51.08;98672.19;5092453;28;20036;-44
2023/05/23 11:14:30;;;;;;;42.25;26.25;;;;;;;24.67;50.73;98668.00;5092525;28;20024;-45
2023/05/23 11:16:56;;;;;;;40.30;27.48;;;;;;;24.78;50.68;98666.75;5091322;28;20448;-45
2023/05/23 11:19:24;;;;;;;39.95;26.55;;;;;;;25.08;49.51;98656.59;5092506;28;20081;-44